createdAt,value
2018-12-11T00:01:55.615Z,99.70
2018-12-11T00:04:32.047Z,98.50
2018-12-11T00:07:03.576Z,98.30
2018-12-11T00:09:46.306Z,98.50
2018-12-11T00:12:18.103Z,98.40
2018-12-11T00:14:49.808Z,98.60
2018-12-11T00:17:20.119Z,98.30
2018-12-11T00:19:49.805Z,97.90
2018-12-11T00:22:21.683Z,97.90
2018-12-11T00:24:53.791Z,97.30
2018-12-11T00:27:24.492Z,96.50
2018-12-11T00:29:56.292Z,95.90
2018-12-11T00:32:30.588Z,96.30
2018-12-11T00:35:01.858Z,96.40
2018-12-11T00:37:31.898Z,95.90
2018-12-11T00:40:06.307Z,96.50
2018-12-11T00:42:44.833Z,96.40
2018-12-11T00:45:16.327Z,96.40
2018-12-11T00:47:50.548Z,96.80
2018-12-11T00:53:49.958Z,97.10
2018-12-11T00:59:17.318Z,95.90
2018-12-11T01:01:45.626Z,94.70
2018-12-11T01:04:17.511Z,95.00
2018-12-11T01:06:45.780Z,95.00
2018-12-11T01:09:13.936Z,94.60
2018-12-11T01:11:42.355Z,94.40
2018-12-11T01:14:10.553Z,94.50
2018-12-11T01:16:38.823Z,94.90
2018-12-11T01:19:07.012Z,95.30
2018-12-11T01:21:35.290Z,95.10
2018-12-11T01:24:03.915Z,96.30
2018-12-11T01:26:32.282Z,95.80
2018-12-11T01:29:00.518Z,94.40
2018-12-11T01:31:29.616Z,94.10
2018-12-11T01:33:57.828Z,94.50
2018-12-11T01:36:26.799Z,94.70
2018-12-11T01:39:08.469Z,94.70
2018-12-11T01:41:36.827Z,95.00
2018-12-11T01:44:05.200Z,95.30
2018-12-11T01:46:33.447Z,94.30
2018-12-11T01:49:01.596Z,94.90
2018-12-11T01:51:29.843Z,94.60
2018-12-11T01:54:01.606Z,95.40
2018-12-11T01:59:30.236Z,95.10
2018-12-11T02:01:58.637Z,94.70
2018-12-11T02:04:36.976Z,95.30
2018-12-11T02:07:05.211Z,93.80
2018-12-11T02:12:40.738Z,94.20
2018-12-11T02:15:18.437Z,94.30
2018-12-11T02:17:46.821Z,94.40
2018-12-11T02:20:20.761Z,94.60
2018-12-11T02:22:54.400Z,94.90
2018-12-11T02:25:25.955Z,95.10
2018-12-11T02:27:56.474Z,94.50
2018-12-11T02:30:32.323Z,94.80
2018-12-11T02:33:07.245Z,94.80
2018-12-11T02:35:51.516Z,94.90
2018-12-11T02:38:25.074Z,95.90
2018-12-11T02:41:06.947Z,95.20
2018-12-11T02:49:46.365Z,95.40
2018-12-11T02:52:15.926Z,95.30
2018-12-11T02:55:02.797Z,96.40
2018-12-11T03:01:47.684Z,96.80
2018-12-11T03:07:19.504Z,96.10
2018-12-11T03:09:51.803Z,97.40
2018-12-11T03:17:22.746Z,96.40
2018-12-11T03:20:03.849Z,95.60
2018-12-11T03:22:37.606Z,95.90
2018-12-11T03:25:09.028Z,96.00
2018-12-11T03:27:37.165Z,95.20
2018-12-11T03:30:08.620Z,94.90
2018-12-11T03:32:55.457Z,95.00
2018-12-11T03:38:23.065Z,95.30
2018-12-11T03:40:51.439Z,94.70
2018-12-11T03:43:29.719Z,95.00
2018-12-11T03:46:10.311Z,95.50
2018-12-11T03:48:46.861Z,95.40
2018-12-11T03:51:25.293Z,95.60
2018-12-11T03:53:57.554Z,95.90
2018-12-11T03:56:26.135Z,95.20
2018-12-11T03:58:54.760Z,95.10
2018-12-11T04:01:29.959Z,95.40
2018-12-11T04:03:58.571Z,95.00
2018-12-11T04:06:29.672Z,95.00
2018-12-11T04:09:07.962Z,96.60
2018-12-11T04:11:39.414Z,95.70
2018-12-11T04:14:13.614Z,95.40
2018-12-11T04:16:49.061Z,95.40
2018-12-11T04:19:23.509Z,97.00
2018-12-11T04:21:54.254Z,95.70
2018-12-11T04:24:23.492Z,95.60
2018-12-11T04:26:52.442Z,95.10
2018-12-11T04:29:21.502Z,94.90
2018-12-11T04:31:54.091Z,94.90
2018-12-11T04:34:35.304Z,95.70
2018-12-11T04:37:13.804Z,95.60
2018-12-11T04:39:49.135Z,95.70
2018-12-11T04:42:18.785Z,96.50
2018-12-11T04:44:48.229Z,96.60
2018-12-11T04:47:32.976Z,95.00
2018-12-11T04:50:14.846Z,94.80
2018-12-11T04:52:46.444Z,95.00
2018-12-11T04:55:27.759Z,95.20
2018-12-11T04:57:56.311Z,94.20
2018-12-11T05:00:24.702Z,93.80
2018-12-11T05:02:54.055Z,93.60
2018-12-11T05:05:25.587Z,94.10
2018-12-11T05:07:54.333Z,94.10
2018-12-11T05:10:22.951Z,94.50
2018-12-11T05:13:03.963Z,93.50
2018-12-11T05:15:39.346Z,94.40
2018-12-11T05:18:07.856Z,93.60
2018-12-11T05:20:36.299Z,93.60
2018-12-11T05:23:04.921Z,95.80
2018-12-11T05:25:36.607Z,94.90
2018-12-11T05:28:08.464Z,94.60
2018-12-11T05:30:36.738Z,94.70
2018-12-11T05:33:08.884Z,94.20
2018-12-11T05:35:40.744Z,95.50
2018-12-11T05:38:13.150Z,94.90
2018-12-11T05:40:47.303Z,94.70
2018-12-11T05:43:26.047Z,94.60
2018-12-11T05:45:58.338Z,93.80
2018-12-11T05:48:26.759Z,94.60
2018-12-11T05:50:55.371Z,95.10
2018-12-11T05:53:24.097Z,95.20
2018-12-11T05:55:52.631Z,95.30
2018-12-11T05:58:21.017Z,94.20
2018-12-11T06:00:49.525Z,94.40
2018-12-11T06:03:38.490Z,94.10
2018-12-11T06:06:10.290Z,93.20
2018-12-11T06:08:42.818Z,96.20
2018-12-11T06:14:06.172Z,94.70
2018-12-11T06:19:30.345Z,91.70
2018-12-11T06:24:51.448Z,92.50
2018-12-11T06:27:42.733Z,92.10
2018-12-11T06:30:10.963Z,90.50
2018-12-11T06:32:39.131Z,90.90
2018-12-11T06:35:07.515Z,90.70
2018-12-11T06:37:35.743Z,90.50
2018-12-11T06:40:04.273Z,91.10
2018-12-11T06:42:32.398Z,90.30
2018-12-11T06:45:00.601Z,90.20
2018-12-11T06:47:29.505Z,90.20
2018-12-11T06:49:57.696Z,90.30
2018-12-11T06:52:26.102Z,89.50
2018-12-11T06:54:54.227Z,88.80
2018-12-11T06:57:22.367Z,89.20
2018-12-11T06:59:50.495Z,89.50
2018-12-11T07:02:18.776Z,89.60
2018-12-11T07:04:46.967Z,87.90
2018-12-11T07:07:15.248Z,89.80
2018-12-11T07:09:43.433Z,89.20
2018-12-11T07:12:11.643Z,89.40
2018-12-11T07:14:39.831Z,89.60
2018-12-11T07:17:07.964Z,88.10
2018-12-11T07:19:36.159Z,88.90
2018-12-11T07:22:04.394Z,89.10
2018-12-11T07:24:32.651Z,89.30
2018-12-11T07:27:00.787Z,90.30
2018-12-11T07:29:29.043Z,90.30
2018-12-11T07:31:57.176Z,89.20
2018-12-11T07:34:25.303Z,88.30
2018-12-11T07:36:53.698Z,88.60
2018-12-11T07:39:21.833Z,88.80
2018-12-11T07:41:49.971Z,89.50
2018-12-11T07:44:18.234Z,88.00
2018-12-11T07:46:46.500Z,88.20
2018-12-11T07:49:14.702Z,89.10
2018-12-11T07:51:43.013Z,88.10
2018-12-11T07:54:11.139Z,88.20
2018-12-11T07:56:39.259Z,88.60
2018-12-11T07:59:07.450Z,87.90
2018-12-11T08:01:36.102Z,87.20
2018-12-11T08:04:05.196Z,88.00
2018-12-11T08:06:33.370Z,88.70
2018-12-11T08:09:01.570Z,87.00
2018-12-11T08:11:29.778Z,87.70
2018-12-11T08:13:57.902Z,86.60
2018-12-11T08:16:26.327Z,87.90
2018-12-11T08:18:54.842Z,86.40
2018-12-11T08:21:23.038Z,87.50
2018-12-11T08:23:51.300Z,86.40
2018-12-11T08:26:19.483Z,86.40
2018-12-11T08:28:47.689Z,86.80
2018-12-11T08:31:15.887Z,85.90
2018-12-11T08:33:44.081Z,86.50
2018-12-11T08:36:12.210Z,87.40
2018-12-11T08:38:40.386Z,86.60
2018-12-11T08:41:08.646Z,86.90
2018-12-11T08:43:36.835Z,87.00
2018-12-11T08:46:05.022Z,87.10
2018-12-11T08:48:33.172Z,87.60
2018-12-11T08:51:01.270Z,87.80
2018-12-11T08:53:30.198Z,86.90
2018-12-11T08:55:58.335Z,86.80
2018-12-11T08:58:26.427Z,86.90
2018-12-11T09:00:54.618Z,86.80
2018-12-11T09:03:22.724Z,86.90
2018-12-11T09:05:50.922Z,86.30
2018-12-11T09:08:19.174Z,86.90
2018-12-11T09:10:47.435Z,87.30
2018-12-11T09:13:15.536Z,87.20
2018-12-11T09:15:43.708Z,88.10
2018-12-11T09:18:11.822Z,87.50
2018-12-11T09:20:40.074Z,87.20
2018-12-11T09:23:08.243Z,87.10
2018-12-11T09:25:36.434Z,88.90
2018-12-11T09:28:10.791Z,88.10
2018-12-11T09:30:34.719Z,87.60
2018-12-11T09:33:02.835Z,85.50
2018-12-11T09:35:31.022Z,84.50
2018-12-11T09:37:59.200Z,84.80
2018-12-11T09:40:27.358Z,84.60
2018-12-11T09:42:55.487Z,81.90
2018-12-11T09:45:23.614Z,81.30
2018-12-11T09:47:55.026Z,83.90
2018-12-11T09:50:29.134Z,79.00
2018-12-11T09:52:57.300Z,77.70
2018-12-11T09:55:25.530Z,75.90
2018-12-11T09:57:53.690Z,70.10
2018-12-11T10:00:25.803Z,70.90
2018-12-11T10:02:52.024Z,70.70
2018-12-11T10:05:20.195Z,71.10
2018-12-11T10:07:48.341Z,69.70
2018-12-11T10:10:16.506Z,69.40
2018-12-11T10:12:44.639Z,67.80
2018-12-11T10:15:13.063Z,67.40
2018-12-11T10:17:41.236Z,67.60
2018-12-11T10:20:09.628Z,66.50
2018-12-11T10:22:37.851Z,66.60
2018-12-11T10:25:06.107Z,65.10
2018-12-11T10:27:34.281Z,62.30
2018-12-11T10:30:02.567Z,61.60
2018-12-11T10:32:30.734Z,61.40
2018-12-11T10:34:58.911Z,60.00
2018-12-11T10:37:27.160Z,61.40
2018-12-11T10:39:55.946Z,59.70
2018-12-11T10:42:24.195Z,59.50
2018-12-11T10:44:52.357Z,60.30
2018-12-11T10:47:21.987Z,60.00
2018-12-11T10:49:50.242Z,57.80
2018-12-11T10:52:18.571Z,55.20
2018-12-11T10:54:46.729Z,56.50
2018-12-11T10:57:14.890Z,56.20
2018-12-11T10:59:43.036Z,57.00
2018-12-11T11:02:29.806Z,54.30
2018-12-11T11:04:58.027Z,54.70
2018-12-11T11:07:26.194Z,49.10
2018-12-11T11:09:54.366Z,48.70
2018-12-11T11:12:22.538Z,49.60
2018-12-11T11:14:50.778Z,47.50
2018-12-11T11:17:19.035Z,47.60
2018-12-11T11:25:54.635Z,50.50
2018-12-11T11:58:56.841Z,52.50
2018-12-11T12:01:28.270Z,46.40
2018-12-11T12:06:59.283Z,33.00
2018-12-11T12:09:29.362Z,32.50
2018-12-11T12:11:59.042Z,33.10
2018-12-11T12:14:30.435Z,32.30
2018-12-11T12:19:56.742Z,20.60
2018-12-11T12:25:24.466Z,18.90
2018-12-11T12:30:59.098Z,19.40
2018-12-11T12:33:30.410Z,17.30
2018-12-11T12:35:58.554Z,17.10
2018-12-11T12:38:26.706Z,17.00
2018-12-11T12:40:54.874Z,16.90
2018-12-11T12:43:29.434Z,17.20
2018-12-11T12:46:04.197Z,14.80
2018-12-11T12:48:35.890Z,10.20
2018-12-11T12:51:07.887Z,10.50
2018-12-11T12:53:38.010Z,11.60
2018-12-11T12:56:09.189Z,12.50
2018-12-11T12:58:38.682Z,10.90
2018-12-11T13:01:12.502Z,9.90
2018-12-11T13:03:44.603Z,8.50
2018-12-11T13:06:16.202Z,8.40
2018-12-11T13:11:54.079Z,1.00
2018-12-11T13:20:34.806Z,3.00
2018-12-11T13:23:07.398Z,3.50
2018-12-11T13:28:13.327Z,5.20
2018-12-11T13:34:09.710Z,6.30
2018-12-11T13:36:39.242Z,6.80
2018-12-11T13:39:11.248Z,7.00
2018-12-11T13:41:44.906Z,7.70
2018-12-11T13:44:16.670Z,8.40
2018-12-11T13:46:57.803Z,8.00
2018-12-11T13:52:14.030Z,7.90
2018-12-11T13:54:45.798Z,8.30
2018-12-11T13:57:17.084Z,8.10
2018-12-11T13:59:51.580Z,9.10
2018-12-11T14:02:22.926Z,8.00
2018-12-11T14:04:53.078Z,6.90
2018-12-11T14:07:24.562Z,8.30
2018-12-11T14:10:05.553Z,7.40
2018-12-11T14:12:43.410Z,9.70
2018-12-11T14:15:15.254Z,9.90
2018-12-11T14:17:44.559Z,9.60
2018-12-11T14:20:28.987Z,9.70
2018-12-11T14:23:00.952Z,10.20
2018-12-11T14:25:31.083Z,10.70
2018-12-11T14:28:09.906Z,10.60
2018-12-11T14:30:43.714Z,12.50
2018-12-11T14:39:10.626Z,13.20
2018-12-11T14:41:46.027Z,13.60
2018-12-11T14:44:17.474Z,14.90
2018-12-11T14:46:48.974Z,14.80
2018-12-11T14:49:20.958Z,14.50
2018-12-11T14:51:55.341Z,14.80
2018-12-11T14:54:31.299Z,14.50
2018-12-11T14:57:01.278Z,14.70
2018-12-11T14:59:34.986Z,15.10
2018-12-11T15:02:04.723Z,17.40
2018-12-11T15:04:34.623Z,18.00
2018-12-11T15:07:12.259Z,17.00
2018-12-11T15:09:48.490Z,16.20
2018-12-11T15:12:20.158Z,16.90
2018-12-11T15:14:50.253Z,17.50
2018-12-11T15:17:21.438Z,17.20
2018-12-11T15:19:52.830Z,17.30
2018-12-11T15:25:59.442Z,15.00
2018-12-11T15:28:28.927Z,15.90
2018-12-11T15:31:10.722Z,16.00
2018-12-11T15:33:44.452Z,16.30
2018-12-11T15:36:15.855Z,15.60
2018-12-11T15:38:47.998Z,16.80
2018-12-11T15:45:29.558Z,16.80
2018-12-11T15:48:05.875Z,15.80
2018-12-11T16:00:37.187Z,15.50
2018-12-11T16:06:31.209Z,16.50
2018-12-11T16:09:12.013Z,17.40
2018-12-11T16:11:54.029Z,17.80
2018-12-11T16:14:36.799Z,19.00
2018-12-11T16:20:23.991Z,19.30
2018-12-11T16:23:07.761Z,19.70
2018-12-11T16:25:50.481Z,19.50
2018-12-11T16:28:30.239Z,19.10
2018-12-11T16:31:02.255Z,17.20
2018-12-11T16:33:34.533Z,18.50
2018-12-11T16:36:07.040Z,19.70
2018-12-11T16:38:39.395Z,20.10
2018-12-11T16:41:20.107Z,21.70
2018-12-11T16:43:53.871Z,23.10
2018-12-11T16:46:25.823Z,23.20
2018-12-11T16:49:06.810Z,24.10
2018-12-11T16:51:47.217Z,23.20
2018-12-11T16:54:21.708Z,22.90
2018-12-11T16:56:53.518Z,22.90
2018-12-11T16:59:27.244Z,21.60
2018-12-11T17:01:59.226Z,21.50
2018-12-11T17:04:31.515Z,20.80
2018-12-11T17:07:03.915Z,20.90
2018-12-11T17:09:38.168Z,19.80
2018-12-11T17:12:12.830Z,19.70
2018-12-11T17:14:47.403Z,20.30
2018-12-11T17:17:28.916Z,19.70
2018-12-11T17:20:09.422Z,19.40
2018-12-11T17:22:41.571Z,18.80
2018-12-11T17:25:15.215Z,17.70
2018-12-11T17:27:53.978Z,18.60
2018-12-11T17:33:46.928Z,17.50
2018-12-11T17:36:26.965Z,16.90
2018-12-11T17:38:57.389Z,16.30
2018-12-11T17:41:27.223Z,16.10
2018-12-11T17:43:59.212Z,17.10
2018-12-11T17:46:30.324Z,17.60
2018-12-11T17:49:00.610Z,16.90
2018-12-11T17:51:37.191Z,17.00
2018-12-11T17:54:13.348Z,17.20
2018-12-11T17:59:33.765Z,17.40
2018-12-11T18:02:07.327Z,17.10
2018-12-11T18:04:42.389Z,16.90
2018-12-11T18:15:57.894Z,18.10
2018-12-11T18:24:28.282Z,18.00
2018-12-11T18:27:15.907Z,18.10
2018-12-11T18:33:00.779Z,18.20
2018-12-11T18:38:56.109Z,18.00
2018-12-11T18:44:46.968Z,17.70
2018-12-11T19:57:50.870Z,10.60
2018-12-11T20:00:22.775Z,11.90
2018-12-11T20:05:52.081Z,13.00
2018-12-11T20:33:37.486Z,8.30
2018-12-11T20:39:13.602Z,9.30
2018-12-11T20:41:52.706Z,10.80
2018-12-11T20:44:23.146Z,8.70
2018-12-11T20:47:06.902Z,8.80
2018-12-11T20:49:47.882Z,10.40
2018-12-11T21:01:07.916Z,12.70
2018-12-11T21:09:39.775Z,12.90
2018-12-11T21:12:41.787Z,14.80
2018-12-11T21:18:29.363Z,14.30
2018-12-11T21:29:19.996Z,16.70
2018-12-11T21:34:48.300Z,15.40
2018-12-11T21:37:16.486Z,15.90
2018-12-11T21:39:44.712Z,15.80
2018-12-11T21:42:12.857Z,17.40
2018-12-11T21:44:53.222Z,16.10
2018-12-11T21:47:28.743Z,17.20
2018-12-11T21:50:16.131Z,16.80
2018-12-11T21:52:54.846Z,16.40
2018-12-11T21:58:50.112Z,17.20
2018-12-11T22:04:49.840Z,18.40
2018-12-11T22:59:38.940Z,21.00
2018-12-11T23:05:13.143Z,20.50
2018-12-11T23:07:41.335Z,20.20
2018-12-11T23:10:09.583Z,20.80
2018-12-11T23:12:51.054Z,20.30
2018-12-11T23:15:22.851Z,20.90
2018-12-11T23:17:54.176Z,21.90
2018-12-11T23:20:36.667Z,21.70
2018-12-11T23:23:17.069Z,20.90
2018-12-11T23:25:50.784Z,21.20
2018-12-11T23:28:30.551Z,20.90
2018-12-11T23:31:05.175Z,21.60
2018-12-11T23:36:40.003Z,19.80
2018-12-11T23:39:14.071Z,19.90
2018-12-11T23:41:52.636Z,20.30
2018-12-11T23:44:24.508Z,21.40
2018-12-11T23:46:56.607Z,20.90
2018-12-11T23:49:32.639Z,21.90
2018-12-11T23:52:10.932Z,21.60
2018-12-11T23:54:42.187Z,21.30
2018-12-11T23:57:19.068Z,21.30
2018-12-11T23:59:55.521Z,20.80
